Time;durP1;ratioP1;P1;durP2;ratioP2;P2;SDS_P1;SDS_P2;PMS_P1;PMS_P2;Temp;Humidity;BMP_temperature;BMP_pressure;BME280_temperature;BME280_humidity;BME280_pressure;Samples;Min_cycle;Max_cycle;Signal;HPM_P1;HPM_P2
2021/05/23 00:01:07;;;;;;;8.43;3.87;;;;;;;9.34;76.13;99256.83;232610;1174;116332;-69
2021/05/23 00:06:11;;;;;;;8.00;3.73;;;;;;;9.30;75.59;99255.69;232621;1175;115932;-68
2021/05/23 00:11:15;;;;;;;5.15;2.98;;;;;;;9.20;75.61;99260.80;233275;1174;116665;-69
2021/05/23 00:16:23;;;;;;;4.70;3.53;;;;;;;9.16;76.36;99260.50;233087;1174;116604;-69
2021/05/23 00:21:28;;;;;;;7.40;3.93;;;;;;;9.21;75.81;99262.42;233602;1174;114978;-68
2021/05/23 00:26:33;;;;;;;5.40;4.50;;;;;;;9.27;75.80;99256.16;233617;1174;117101;-68
2021/05/23 00:31:38;;;;;;;7.40;3.50;;;;;;;9.27;76.34;99261.48;234133;1176;115972;-69
2021/05/23 00:36:42;;;;;;;3.47;3.00;;;;;;;9.25;76.46;99258.25;233596;1174;115775;-67
2021/05/23 00:41:46;;;;;;;4.40;3.18;;;;;;;9.29;76.24;99254.07;235247;1174;116230;-69
2021/05/23 00:46:49;;;;;;;4.10;3.23;;;;;;;9.36;76.29;99268.04;235252;1174;115525;-68
2021/05/23 00:51:53;;;;;;;9.90;3.60;;;;;;;9.38;75.94;99269.42;233600;1174;116543;-69
2021/05/23 00:56:56;;;;;;;5.17;3.43;;;;;;;9.38;75.64;99268.61;232663;1174;115845;-69
2021/05/23 01:01:58;;;;;;;6.90;2.90;;;;;;;9.42;75.97;99275.08;232549;1174;115827;-69
2021/05/23 01:07:02;;;;;;;6.90;3.65;;;;;;;9.42;75.66;99275.08;233724;1174;137517;-69
2021/05/23 01:12:21;;;;;;;3.30;2.08;;;;;;;9.45;76.35;99277.27;233099;1174;115469;-69
2021/05/23 01:17:38;;;;;;;6.57;4.57;;;;;;;9.48;75.87;99283.97;233147;1174;115519;-68
2021/05/23 01:22:49;;;;;;;9.07;2.73;;;;;;;9.45;75.35;99278.07;233768;1174;115642;-68
2021/05/23 01:27:53;;;;;;;4.53;2.90;;;;;;;9.40;75.72;99282.48;233192;1174;115773;-68
2021/05/23 01:33:03;;;;;;;4.03;3.03;;;;;;;9.37;75.29;99285.62;233562;1174;115819;-68
2021/05/23 01:38:13;;;;;;;2.95;1.85;;;;;;;9.32;75.23;99286.33;232518;1174;115069;-68
2021/05/23 01:43:18;;;;;;;10.58;3.35;;;;;;;9.24;75.20;99283.23;232637;1174;114570;-68
2021/05/23 01:48:22;;;;;;;3.55;2.88;;;;;;;9.18;75.82;99281.50;233056;1174;115080;-68
2021/05/23 01:53:25;;;;;;;3.05;2.13;;;;;;;9.17;75.48;99291.37;232872;1174;114975;-68
2021/05/23 01:58:29;;;;;;;3.80;3.05;;;;;;;9.13;75.42;99292.07;234139;1174;115295;-69
2021/05/23 02:03:33;;;;;;;4.13;2.93;;;;;;;9.10;75.18;99288.03;232523;1174;115835;-69
2021/05/23 02:08:37;;;;;;;5.47;3.00;;;;;;;9.11;75.27;99298.43;232545;1176;115710;-69
2021/05/23 02:13:39;;;;;;;3.17;2.87;;;;;;;9.06;75.65;99297.52;232529;1174;115379;-69
2021/05/23 02:18:43;;;;;;;4.40;2.50;;;;;;;8.99;74.98;99294.98;233991;1174;114502;-69
2021/05/23 02:23:52;;;;;;;3.08;2.33;;;;;;;8.89;76.10;99300.08;234282;1174;114955;-70
2021/05/23 02:28:55;;;;;;;2.98;1.90;;;;;;;8.88;75.33;99295.80;234292;1174;115489;-69
2021/05/23 02:33:57;;;;;;;7.27;2.70;;;;;;;8.81;75.96;99289.83;233052;1174;116161;-70
2021/05/23 02:39:00;;;;;;;3.65;2.40;;;;;;;8.68;76.35;99290.07;233495;1174;115088;-69
2021/05/23 02:44:03;;;;;;;2.83;2.38;;;;;;;8.68;75.94;99295.38;235231;1174;114568;-67
2021/05/23 02:49:06;;;;;;;4.10;2.20;;;;;;;8.66;75.19;99292.15;235005;1174;114666;-68
2021/05/23 02:54:09;;;;;;;1.83;1.73;;;;;;;8.63;75.35;99297.92;233318;1174;114772;-68
2021/05/23 02:59:13;;;;;;;2.50;2.30;;;;;;;8.53;76.00;99297.72;233163;1167;115333;-67
2021/05/23 03:04:16;;;;;;;3.67;2.33;;;;;;;8.52;76.13;99299.57;233445;1174;115303;-67
2021/05/23 03:09:18;;;;;;;2.73;2.43;;;;;;;8.53;76.29;99309.16;232622;1167;115706;-66
2021/05/23 03:14:22;;;;;;;4.10;2.70;;;;;;;8.58;75.32;99303.13;232550;1174;115915;-68
2021/05/23 03:19:25;;;;;;;6.07;2.67;;;;;;;8.62;76.24;99313.06;232915;1174;115347;-66
2021/05/23 03:24:28;;;;;;;1.97;1.80;;;;;;;8.83;75.53;99316.98;233247;1174;115391;-67
2021/05/23 03:29:31;;;;;;;2.90;2.65;;;;;;;8.92;76.19;99317.41;232607;1174;115406;-68
2021/05/23 03:34:34;;;;;;;5.68;2.00;;;;;;;9.05;75.36;99315.32;232745;1174;114975;-68
2021/05/23 03:39:36;;;;;;;34.95;3.05;;;;;;;9.18;75.62;99316.08;232551;1174;116162;-68
2021/05/23 03:44:40;;;;;;;2.83;1.98;;;;;;;9.32;75.71;99320.09;232720;1170;115350;-67
2021/05/23 03:49:44;;;;;;;2.08;1.88;;;;;;;9.54;75.32;99318.38;232703;1174;204801;-67
2021/05/23 03:54:48;;;;;;;2.08;1.73;;;;;;;9.96;74.78;99326.05;232671;1174;114534;-67
2021/05/23 03:59:52;;;;;;;2.18;1.93;;;;;;;10.04;74.27;99328.33;232731;1174;115377;-68
2021/05/23 04:04:58;;;;;;;4.23;1.60;;;;;;;10.03;74.64;99324.86;232740;1174;116446;-67
2021/05/23 04:10:03;;;;;;;2.03;1.47;;;;;;;10.25;73.76;99346.28;233445;1174;115406;-69
2021/05/23 04:15:07;;;;;;;2.83;1.73;;;;;;;10.60;73.46;99345.22;232959;1167;116168;-67
2021/05/23 04:20:14;;;;;;;2.55;2.35;;;;;;;11.33;73.17;99339.52;232387;1170;115665;-68
2021/05/23 04:25:18;;;;;;;1.80;1.65;;;;;;;13.69;69.89;99345.27;232684;1174;116168;-68
2021/05/23 04:30:25;;;;;;;2.15;1.25;;;;;;;14.66;68.68;99356.08;232823;1174;115377;-68
2021/05/23 04:35:29;;;;;;;0.85;0.70;;;;;;;15.87;65.70;99348.66;233677;1174;115033;-69
2021/05/23 04:40:33;;;;;;;1.65;1.55;;;;;;;15.75;66.17;99352.48;234434;1174;115284;-66
2021/05/23 04:45:37;;;;;;;4.28;1.30;;;;;;;15.71;65.32;99358.69;235186;1174;115434;-67
2021/05/23 04:50:40;;;;;;;4.50;2.33;;;;;;;15.15;64.97;99369.64;235107;1174;115410;-66
2021/05/23 04:55:43;;;;;;;3.63;1.63;;;;;;;15.35;64.64;99360.70;235036;1174;114648;-67
2021/05/23 05:00:46;;;;;;;2.87;1.73;;;;;;;19.15;59.98;99363.63;234955;1174;115864;-67
2021/05/23 05:05:50;;;;;;;4.73;2.28;;;;;;;23.00;56.03;99363.22;234988;1174;114867;-67
2021/05/23 05:10:54;;;;;;;1.40;1.30;;;;;;;26.64;51.21;99366.30;234925;1171;115738;-68
2021/05/23 05:15:57;;;;;;;3.23;1.87;;;;;;;29.11;46.92;99385.82;233659;1170;115307;-67
2021/05/23 05:21:01;;;;;;;7.18;1.68;;;;;;;31.47;44.07;99391.09;233714;1174;115493;-68
2021/05/23 05:26:04;;;;;;;2.13;1.47;;;;;;;32.72;40.96;99404.29;233618;1174;115479;-70
2021/05/23 05:31:09;;;;;;;1.50;1.40;;;;;;;34.33;39.26;99411.30;232572;1174;115706;-70
2021/05/23 05:36:13;;;;;;;1.23;1.13;;;;;;;34.73;36.33;99420.19;232575;1175;115163;-70
2021/05/23 05:41:20;;;;;;;3.43;1.63;;;;;;;35.94;35.00;99424.78;232465;1174;115232;-70
2021/05/23 05:46:23;;;;;;;1.20;1.10;;;;;;;37.04;32.04;99432.46;232478;1174;115850;-71
2021/05/23 05:51:27;;;;;;;1.13;1.03;;;;;;;37.55;30.71;99436.03;232770;1174;115162;-70
2021/05/23 05:56:30;;;;;;;1.60;1.17;;;;;;;37.70;29.33;99440.14;233098;1174;115481;-71
2021/05/23 06:01:32;;;;;;;1.25;1.15;;;;;;;37.90;28.69;99431.84;232717;1174;115680;-72
2021/05/23 06:06:34;;;;;;;1.23;0.93;;;;;;;38.38;26.96;99438.84;232749;1174;115728;-72
2021/05/23 06:11:38;;;;;;;1.87;1.20;;;;;;;38.56;26.72;99427.30;232905;1174;115925;-72
2021/05/23 06:16:41;;;;;;;1.87;1.20;;;;;;;39.04;26.32;99430.23;233644;1174;115063;-69
2021/05/23 06:21:44;;;;;;;0.80;0.80;;;;;;;38.97;25.08;99441.52;232390;1174;115477;-71
2021/05/23 06:26:47;;;;;;;0.63;0.63;;;;;;;38.12;24.59;99443.35;232484;1174;115442;-70
2021/05/23 06:31:51;;;;;;;1.20;0.80;;;;;;;37.01;23.16;99449.97;233325;1174;115879;-71
2021/05/23 06:36:55;;;;;;;0.80;0.50;;;;;;;34.88;25.16;99440.29;232503;1174;116393;-71
2021/05/23 06:41:58;;;;;;;3.60;1.10;;;;;;;33.82;25.59;99449.78;232746;1174;115479;-70
2021/05/23 06:47:02;;;;;;;0.87;0.87;;;;;;;32.96;25.83;99435.93;232533;1174;115468;-71
2021/05/23 06:52:08;;;;;;;1.08;0.93;;;;;;;30.91;26.70;99440.91;234986;1174;115039;-71
2021/05/23 06:57:16;;;;;;;1.60;1.40;;;;;;;28.99;27.85;99447.19;234367;1174;115254;-70
2021/05/23 07:02:20;;;;;;;0.80;0.80;;;;;;;28.72;28.98;99440.78;233931;1174;115546;-70
2021/05/23 07:07:24;;;;;;;1.18;0.88;;;;;;;29.75;28.99;99436.28;233875;1174;115799;-70
2021/05/23 07:12:28;;;;;;;;;;;;;;;30.87;28.61;99445.61;235086;1174;212333;-71
2021/05/23 07:17:31;;;;;;;0.78;0.78;;;;;;;30.83;28.75;99440.06;233668;1174;103100;-71
2021/05/23 07:22:36;;;;;;;3.33;0.83;;;;;;;30.04;28.67;99451.25;232598;1174;115884;-70
2021/05/23 07:27:40;;;;;;;2.10;0.85;;;;;;;29.08;28.81;99450.47;232703;1174;115914;-70
2021/05/23 07:32:43;;;;;;;;;;;;;;;28.19;29.79;99456.10;232603;1175;116890;-70
2021/05/23 07:37:46;;;;;;;1.20;1.00;;;;;;;27.53;30.90;99465.13;233352;1174;103249;-70
2021/05/23 07:42:52;;;;;;;1.85;1.08;;;;;;;26.37;31.22;99471.76;232377;1174;115880;-70
2021/05/23 07:47:57;;;;;;;1.33;0.80;;;;;;;25.67;31.90;99476.63;232634;1174;116088;-70
2021/05/23 07:53:02;;;;;;;0.93;0.80;;;;;;;25.03;31.71;99485.38;232673;1174;116178;-69
2021/05/23 07:58:05;;;;;;;;;;;;;;;24.48;32.87;99492.71;232916;1174;116187;-70
2021/05/23 08:03:08;;;;;;;3.65;1.20;;;;;;;23.92;33.05;99490.52;234795;1174;103012;-70
2021/05/23 08:08:12;;;;;;;1.73;0.80;;;;;;;23.20;33.19;99486.00;232733;1167;115783;-69
2021/05/23 08:13:15;;;;;;;1.70;0.60;;;;;;;22.64;34.35;99490.52;233075;1174;116265;-69
2021/05/23 08:18:28;;;;;;;2.08;0.83;;;;;;;22.28;34.71;99482.70;233494;1174;115726;-70
2021/05/23 08:23:33;;;;;;;1.15;1.08;;;;;;;22.14;35.33;99491.77;233108;1174;116006;-69
2021/05/23 08:28:37;;;;;;;1.13;0.80;;;;;;;22.09;35.70;99497.34;232746;1174;117649;-68
2021/05/23 08:33:40;;;;;;;5.08;1.23;;;;;;;22.00;36.51;99514.72;233356;1174;115720;-69
2021/05/23 08:38:44;;;;;;;0.78;0.70;;;;;;;21.87;36.32;99511.00;233701;1175;116737;-69
2021/05/23 08:43:48;;;;;;;3.83;1.00;;;;;;;22.07;37.40;99506.92;234337;1176;116599;-70
2021/05/23 08:48:52;;;;;;;1.88;0.98;;;;;;;22.15;36.58;99492.57;235063;1174;116450;-70
2021/05/23 08:53:56;;;;;;;2.30;1.07;;;;;;;22.29;37.46;99495.96;233379;1174;115776;-70
2021/05/23 08:58:59;;;;;;;2.63;1.07;;;;;;;22.34;37.27;99509.36;235029;1174;119496;-70
2021/05/23 09:04:05;;;;;;;0.80;0.78;;;;;;;22.16;37.95;99505.03;234890;1174;114917;-70
2021/05/23 09:09:10;;;;;;;1.40;0.70;;;;;;;22.24;38.09;99498.02;234431;1174;115816;-69
2021/05/23 09:14:29;;;;;;;0.80;0.80;;;;;;;22.12;38.13;99504.06;233496;1174;116354;-69
2021/05/23 09:19:43;;;;;;;1.40;1.15;;;;;;;21.95;38.34;99504.00;232696;1174;116286;-69
2021/05/23 09:24:58;;;;;;;0.73;0.65;;;;;;;21.35;38.05;99512.70;233088;1174;118342;-69
2021/05/23 09:30:06;;;;;;;0.48;0.48;;;;;;;21.00;38.28;99504.34;233353;1174;115808;-68
2021/05/23 09:35:11;;;;;;;0.80;0.50;;;;;;;21.15;39.34;99516.69;232811;1170;209031;-68
2021/05/23 09:40:21;;;;;;;0.60;0.60;;;;;;;20.63;38.95;99527.16;232749;1176;117025;-68
2021/05/23 09:45:38;;;;;;;2.50;1.70;;;;;;;20.35;39.28;99523.70;233296;1176;116669;-68
2021/05/23 09:50:44;;;;;;;0.88;0.88;;;;;;;20.78;41.08;99536.86;233160;1174;117604;-67
2021/05/23 09:56:12;;;;;;;0.68;0.68;;;;;;;21.15;40.28;99527.53;232707;1174;117598;-68
2021/05/23 10:01:34;;;;;;;3.63;0.87;;;;;;;21.54;40.15;99542.30;233799;1174;116665;-68
2021/05/23 10:06:38;;;;;;;3.50;0.83;;;;;;;21.81;39.76;99534.76;233485;1174;115866;-69
2021/05/23 10:11:44;;;;;;;2.13;1.00;;;;;;;21.96;39.81;99540.89;233080;1176;115446;-68
2021/05/23 10:16:52;;;;;;;1.75;0.73;;;;;;;21.79;39.62;99542.41;233548;1174;116029;-69
2021/05/23 10:21:57;;;;;;;0.40;0.40;;;;;;;21.38;39.67;99537.30;232715;1174;115816;-68
2021/05/23 10:27:04;;;;;;;1.67;0.60;;;;;;;21.26;38.87;99537.05;233548;1174;114817;-68
2021/05/23 10:32:16;;;;;;;0.40;0.40;;;;;;;21.32;39.19;99557.51;234170;1174;116180;-68
2021/05/23 10:37:27;;;;;;;1.25;0.25;;;;;;;21.35;39.08;99539.82;233411;1174;115028;-69
2021/05/23 10:42:31;;;;;;;0.33;0.10;;;;;;;21.21;39.00;99563.48;234241;1174;115437;-68
2021/05/23 10:47:36;;;;;;;0.50;0.50;;;;;;;21.50;38.72;99556.48;234102;1174;117389;-69
2021/05/23 10:52:40;;;;;;;0.48;0.48;;;;;;;21.82;39.18;99557.27;233885;1174;115407;-69
2021/05/23 10:57:49;;;;;;;0.73;0.60;;;;;;;22.04;38.84;99553.69;234786;1174;115738;-69
2021/05/23 11:02:54;;;;;;;3.60;0.60;;;;;;;22.22;38.60;99560.78;235078;1174;115069;-69
2021/05/23 11:08:02;;;;;;;;;;;;;;;22.29;38.46;99552.98;235093;1174;115214;-71
2021/05/23 11:13:08;;;;;;;3.03;1.00;;;;;;;22.39;38.22;99560.01;235810;1174;101728;-69
2021/05/23 11:18:25;;;;;;;2.10;0.67;;;;;;;22.71;38.15;99550.61;233519;1174;116188;-69
2021/05/23 11:23:32;;;;;;;0.58;0.50;;;;;;;22.46;37.55;99553.00;233848;1174;115474;-69
2021/05/23 11:28:36;;;;;;;3.35;0.85;;;;;;;22.39;37.92;99539.08;233455;1174;115700;-69
2021/05/23 11:33:40;;;;;;;0.33;0.33;;;;;;;22.26;37.83;99541.95;233504;1174;115121;-69
2021/05/23 11:38:45;;;;;;;2.43;1.05;;;;;;;22.07;38.09;99542.20;232318;1171;116440;-68
2021/05/23 11:43:56;;;;;;;2.55;0.80;;;;;;;21.96;37.97;99552.55;232641;1174;116918;-68
2021/05/23 11:49:01;;;;;;;1.90;0.65;;;;;;;21.61;37.79;99545.38;232564;1174;116176;-68
2021/05/23 11:54:05;;;;;;;1.10;0.95;;;;;;;21.59;38.00;99551.11;232840;1167;115782;-68
2021/05/23 11:59:09;;;;;;;3.03;0.90;;;;;;;21.50;38.86;99550.26;232832;1174;115556;-68
2021/05/23 12:04:15;;;;;;;3.63;1.00;;;;;;;21.47;38.94;99550.88;233276;1174;116098;-69
2021/05/23 12:09:29;;;;;;;1.18;0.63;;;;;;;21.39;39.05;99559.78;233147;1174;117466;-68
2021/05/23 12:14:41;;;;;;;5.23;0.90;;;;;;;21.02;38.42;99547.39;233218;1174;116608;-68
2021/05/23 12:19:47;;;;;;;0.50;0.50;;;;;;;20.67;38.97;99549.83;233471;1175;116144;-68
2021/05/23 12:24:53;;;;;;;2.30;1.33;;;;;;;20.72;39.60;99557.04;232754;1174;116078;-68
2021/05/23 12:30:30;;;;;;;1.18;0.60;;;;;;;20.88;39.27;99558.27;233988;1174;115997;-68
2021/05/23 12:35:38;;;;;;;0.60;0.40;;;;;;;21.02;39.57;99552.81;232630;1174;116021;-68
2021/05/23 12:40:51;;;;;;;1.30;1.03;;;;;;;21.17;39.47;99536.95;232542;1174;116543;-74
2021/05/23 12:45:57;;;;;;;1.50;0.78;;;;;;;21.14;38.63;99536.77;232259;1174;117323;-70
2021/05/23 12:51:09;;;;;;;1.60;0.80;;;;;;;21.08;39.05;99541.55;232834;1174;119846;-70
2021/05/23 12:56:17;;;;;;;1.10;0.50;;;;;;;21.16;38.99;99529.14;234803;1174;116107;-71
2021/05/23 13:01:23;;;;;;;0.68;0.55;;;;;;;21.24;38.63;99538.47;234887;1174;115619;-70
2021/05/23 13:06:46;;;;;;;3.47;1.10;;;;;;;21.14;38.78;99532.16;235049;1167;115874;-70
2021/05/23 13:11:54;;;;;;;3.05;0.58;;;;;;;21.09;38.48;99548.57;235156;1174;115508;-71
2021/05/23 13:17:00;;;;;;;0.67;0.67;;;;;;;21.08;38.30;99544.25;234230;1174;114875;-70
2021/05/23 13:22:05;;;;;;;0.83;0.70;;;;;;;21.01;38.49;99560.14;233382;1167;116654;-70
2021/05/23 13:27:09;;;;;;;1.00;0.70;;;;;;;21.02;38.47;99569.07;233324;1174;115185;-71
2021/05/23 13:32:12;;;;;;;3.60;0.57;;;;;;;20.88;38.56;99577.23;232797;1174;116300;-73
2021/05/23 13:37:15;;;;;;;1.38;0.88;;;;;;;20.68;38.34;99575.80;232347;1173;115907;-71
2021/05/23 13:42:19;;;;;;;5.73;0.93;;;;;;;20.37;38.60;99577.55;232434;1174;115616;-70
2021/05/23 13:47:22;;;;;;;0.60;0.58;;;;;;;20.24;38.92;99583.77;233321;1174;116385;-70
2021/05/23 13:52:25;;;;;;;3.43;1.00;;;;;;;20.21;38.97;99584.36;232708;1174;115464;-68
2021/05/23 13:57:29;;;;;;;1.60;0.87;;;;;;;20.12;38.88;99587.80;232976;1174;114793;-68
2021/05/23 14:02:33;;;;;;;6.48;0.70;;;;;;;20.08;38.91;99594.91;232521;1174;115614;-68
2021/05/23 14:07:36;;;;;;;0.95;0.80;;;;;;;20.12;38.77;99589.70;232796;1174;118842;-71
2021/05/23 14:12:39;;;;;;;1.47;0.63;;;;;;;20.35;38.22;99585.16;232866;1174;115819;-71
2021/05/23 14:17:42;;;;;;;2.30;0.70;;;;;;;20.51;38.05;99589.97;232990;1173;115320;-71
2021/05/23 14:22:45;;;;;;;0.70;0.40;;;;;;;20.45;38.06;99585.80;233087;1174;117738;-71
2021/05/23 14:28:07;;;;;;;3.85;1.28;;;;;;;20.37;38.06;99588.38;233968;1174;114947;-70
2021/05/23 14:33:10;;;;;;;3.55;0.73;;;;;;;20.27;37.50;99597.50;232631;1174;115653;-69
2021/05/23 14:38:13;;;;;;;0.63;0.50;;;;;;;20.12;37.58;99589.70;232970;1174;206236;-69
2021/05/23 14:43:17;;;;;;;0.47;0.47;;;;;;;19.89;38.19;99604.20;234660;1174;116365;-69
2021/05/23 14:48:20;;;;;;;2.30;0.63;;;;;;;19.79;38.68;99608.72;233914;1174;115490;-68
2021/05/23 14:53:25;;;;;;;0.63;0.60;;;;;;;19.76;39.56;99603.90;234603;1174;117112;-69
2021/05/23 14:58:29;;;;;;;2.93;1.03;;;;;;;19.85;39.37;99612.14;234900;1174;115012;-68
2021/05/23 15:03:34;;;;;;;1.03;0.53;;;;;;;19.87;39.16;99606.43;235020;1174;115452;-68
2021/05/23 15:08:39;;;;;;;1.18;0.83;;;;;;;19.78;39.40;99615.23;233955;1174;115729;-68
2021/05/23 15:13:44;;;;;;;0.93;0.50;;;;;;;19.66;39.17;99625.70;232737;1174;114936;-68
2021/05/23 15:18:48;;;;;;;2.33;0.80;;;;;;;19.54;39.33;99641.62;235014;1174;115285;-68
2021/05/23 15:23:51;;;;;;;1.63;0.70;;;;;;;19.38;39.61;99637.51;232546;1174;114942;-69
2021/05/23 15:34:54;;;;;;;1.45;1.35;;;;;;;19.11;40.00;99639.01;232950;1174;117490;-68
2021/05/23 15:39:58;;;;;;;1.68;0.80;;;;;;;19.01;40.15;99647.25;233177;1174;115579;-68
2021/05/23 15:45:02;;;;;;;4.97;0.70;;;;;;;18.86;41.23;99644.78;232576;1174;116310;-68
2021/05/23 15:50:07;;;;;;;0.38;0.38;;;;;;;18.80;42.00;99648.64;232587;1174;116029;-68
2021/05/23 15:55:18;;;;;;;0.53;0.50;;;;;;;18.63;42.48;99651.05;232814;1170;119090;-68
2021/05/23 16:00:22;;;;;;;1.65;0.48;;;;;;;18.35;42.34;99644.58;232743;1174;115616;-68
2021/05/23 16:05:27;;;;;;;1.45;1.00;;;;;;;18.18;43.20;99648.55;232326;1174;115860;-67
2021/05/23 16:10:29;;;;;;;0.63;0.63;;;;;;;18.03;43.10;99659.53;232615;1174;116460;-66
2021/05/23 16:15:34;;;;;;;0.40;0.40;;;;;;;17.94;43.32;99666.63;232470;1169;115698;-68
2021/05/23 16:20:37;;;;;;;1.37;0.83;;;;;;;17.79;44.19;99664.86;232419;1174;115762;-68
2021/05/23 16:25:39;;;;;;;0.60;0.60;;;;;;;17.68;44.85;99660.66;233582;1174;114705;-67
2021/05/23 16:30:42;;;;;;;0.80;0.80;;;;;;;17.44;45.56;99678.59;232962;1174;115824;-69
2021/05/23 16:35:47;;;;;;;2.45;0.70;;;;;;;17.33;46.47;99675.19;233092;1174;115707;-69
2021/05/23 16:40:50;;;;;;;2.30;0.80;;;;;;;17.16;47.63;99683.64;233323;1174;114763;-71
2021/05/23 16:45:52;;;;;;;2.85;1.10;;;;;;;17.05;47.73;99686.69;232680;1175;116104;-69
2021/05/23 16:50:55;;;;;;;1.43;0.65;;;;;;;16.83;49.01;99687.06;232798;1176;116776;-69
2021/05/23 16:55:59;;;;;;;0.60;0.60;;;;;;;16.59;49.30;99688.75;232582;1174;115779;-69
2021/05/23 17:01:02;;;;;;;0.70;0.70;;;;;;;16.38;49.14;99693.41;233826;1174;117278;-68
2021/05/23 17:06:05;;;;;;;5.80;0.93;;;;;;;16.22;49.68;99698.01;232615;1174;116762;-68
2021/05/23 17:11:08;;;;;;;3.47;0.80;;;;;;;16.05;50.10;99702.89;235107;1176;116021;-68
2021/05/23 17:16:13;;;;;;;0.67;0.67;;;;;;;15.91;50.47;99726.82;235165;1176;116729;-70
2021/05/23 17:21:16;;;;;;;2.53;1.20;;;;;;;15.68;50.64;99738.92;235166;1175;116684;-67
2021/05/23 17:26:18;;;;;;;1.28;0.88;;;;;;;15.30;52.22;99750.11;233361;1174;116034;-66
2021/05/23 17:31:21;;;;;;;1.90;0.90;;;;;;;14.96;53.49;99761.31;232814;1175;116801;-67
2021/05/23 17:36:24;;;;;;;1.63;1.30;;;;;;;14.54;54.86;99756.01;233582;1174;117541;-70
2021/05/23 17:41:28;;;;;;;2.13;1.28;;;;;;;14.33;56.42;99768.47;233283;1174;116874;-68
2021/05/23 17:46:31;;;;;;;5.10;1.25;;;;;;;14.26;56.87;99773.23;232560;1174;117750;-68
2021/05/23 17:51:34;;;;;;;2.65;1.25;;;;;;;14.23;57.29;99771.06;232989;1174;116989;-68
2021/05/23 17:56:38;;;;;;;5.90;2.50;;;;;;;14.24;58.01;99779.92;233303;1174;114869;-67
2021/05/23 18:01:43;;;;;;;2.10;1.20;;;;;;;14.17;58.26;99785.50;233288;1174;115454;-67
2021/05/23 18:06:47;;;;;;;4.27;1.50;;;;;;;14.16;58.59;99832.13;233014;1174;115711;-68
2021/05/23 18:11:50;;;;;;;2.03;1.63;;;;;;;14.04;58.42;99835.00;232907;1173;116536;-67
2021/05/23 18:16:54;;;;;;;1.10;0.90;;;;;;;13.79;57.67;99835.55;233206;1174;115576;-67
2021/05/23 18:21:57;;;;;;;1.83;1.00;;;;;;;13.63;57.88;99849.06;233074;1174;116966;-69
2021/05/23 18:27:00;;;;;;;0.73;0.73;;;;;;;13.52;58.69;99861.52;232964;1174;115787;-68
2021/05/23 18:32:07;;;;;;;1.70;0.76;;;;;;;13.41;58.58;99863.29;232628;1174;116223;-66
2021/05/23 18:37:10;;;;;;;2.53;1.50;;;;;;;13.30;58.97;99866.89;232439;1174;116303;-65
2021/05/23 18:42:17;;;;;;;0.97;0.70;;;;;;;13.15;59.13;99869.33;233336;1174;115524;-68
2021/05/23 18:47:20;;;;;;;0.70;0.60;;;;;;;12.99;60.09;99865.66;232547;1174;205818;-68
2021/05/23 18:52:25;;;;;;;0.83;0.83;;;;;;;12.67;60.71;99861.98;232619;1174;116247;-68
2021/05/23 18:57:28;;;;;;;1.78;0.98;;;;;;;12.52;61.01;99878.63;234195;1174;116476;-68
2021/05/23 19:02:33;;;;;;;1.18;1.08;;;;;;;12.52;62.19;99885.84;233170;1170;116639;-69
2021/05/23 19:07:39;;;;;;;1.70;1.00;;;;;;;12.58;62.22;99900.89;233650;1175;116359;-68
2021/05/23 19:12:41;;;;;;;1.33;1.23;;;;;;;12.49;61.95;99908.52;233576;1174;115978;-67
2021/05/23 19:17:46;;;;;;;2.47;1.30;;;;;;;12.43;62.56;99904.95;235131;1174;115516;-68
2021/05/23 19:22:50;;;;;;;1.15;1.00;;;;;;;12.33;62.74;99899.43;234584;1175;115591;-66
2021/05/23 19:27:54;;;;;;;1.53;1.18;;;;;;;12.09;62.28;99909.45;234405;1174;115568;-66
2021/05/23 19:32:59;;;;;;;4.07;0.90;;;;;;;11.96;62.64;99916.94;234483;1174;115842;-66
2021/05/23 19:38:02;;;;;;;0.90;0.90;;;;;;;11.85;62.68;99915.95;233656;1174;116499;-68
2021/05/23 19:43:07;;;;;;;2.50;1.10;;;;;;;11.56;62.57;99924.96;233119;1175;116978;-67
2021/05/23 19:48:11;;;;;;;1.25;0.65;;;;;;;11.37;63.43;99929.63;233262;1174;116152;-66
2021/05/23 19:53:16;;;;;;;1.55;1.40;;;;;;;11.20;63.21;99931.41;232602;1174;117139;-70
2021/05/23 19:58:21;;;;;;;2.38;0.90;;;;;;;11.00;63.95;99927.25;233314;1174;116579;-69
2021/05/23 20:03:26;;;;;;;1.63;0.90;;;;;;;10.84;64.23;99943.13;232614;1174;116252;-69
2021/05/23 20:08:32;;;;;;;2.48;1.45;;;;;;;10.60;64.16;99942.30;232491;1174;138257;-70
2021/05/23 20:13:38;;;;;;;5.15;1.40;;;;;;;10.38;64.92;99950.84;233085;1174;116217;-70
2021/05/23 20:18:43;;;;;;;0.90;0.90;;;;;;;10.31;65.10;99954.63;232564;1174;116443;-67
2021/05/23 20:23:46;;;;;;;1.43;1.43;;;;;;;10.29;65.38;99962.04;232566;1174;115137;-69
2021/05/23 20:28:51;;;;;;;1.30;1.20;;;;;;;10.32;66.12;99965.06;233135;1174;208185;-68
2021/05/23 20:33:56;;;;;;;4.33;1.40;;;;;;;10.21;65.64;99973.01;233438;1173;115426;-68
2021/05/23 20:39:00;;;;;;;1.95;1.60;;;;;;;10.18;65.75;99971.58;232526;1174;115979;-70
2021/05/23 20:44:06;;;;;;;4.15;1.80;;;;;;;10.06;66.00;99974.22;232835;1174;115689;-70
2021/05/23 20:49:10;;;;;;;1.13;1.10;;;;;;;9.99;66.54;99985.98;233040;1174;116902;-69
2021/05/23 20:54:14;;;;;;;2.50;1.77;;;;;;;9.89;66.26;99983.84;232597;1174;116691;-69
2021/05/23 20:59:18;;;;;;;3.90;1.90;;;;;;;9.86;66.14;99983.47;233545;1174;116020;-67
2021/05/23 21:04:21;;;;;;;1.25;1.15;;;;;;;9.84;66.63;99994.34;234696;1174;116990;-65
2021/05/23 21:09:25;;;;;;;4.20;1.90;;;;;;;9.73;66.82;100006.58;234831;1174;114947;-67
2021/05/23 21:14:30;;;;;;;3.05;1.50;;;;;;;9.70;66.87;99995.55;235118;1174;115093;-67
2021/05/23 21:19:37;;;;;;;2.93;1.87;;;;;;;9.73;67.03;100006.58;235081;1167;115407;-67
2021/05/23 21:24:42;;;;;;;1.50;1.40;;;;;;;9.72;67.55;100025.43;235149;1173;114995;-66
2021/05/23 21:29:46;;;;;;;2.45;2.23;;;;;;;9.67;67.17;100025.28;234754;1173;115279;-67
2021/05/23 21:34:49;;;;;;;1.65;1.50;;;;;;;9.68;67.47;100032.23;233343;1174;116168;-72
2021/05/23 21:39:53;;;;;;;3.03;2.70;;;;;;;9.68;67.67;100034.89;232641;1174;115196;-70
2021/05/23 21:44:58;;;;;;;3.00;2.10;;;;;;;9.64;68.18;100034.52;233386;1174;115264;-69
2021/05/23 21:50:01;;;;;;;1.70;1.60;;;;;;;9.54;67.75;100044.84;232558;1174;115489;-71
2021/05/23 21:55:06;;;;;;;2.20;2.10;;;;;;;9.49;67.89;100049.20;232489;1174;115046;-69
2021/05/23 22:00:13;;;;;;;2.00;1.80;;;;;;;9.28;67.57;100056.56;233875;1174;115733;-69
2021/05/23 22:05:17;;;;;;;2.05;1.90;;;;;;;9.19;67.70;100063.17;232951;1170;115408;-69
2021/05/23 22:10:21;;;;;;;4.55;2.90;;;;;;;9.19;68.52;100073.00;233060;1174;115717;-68
2021/05/23 22:15:26;;;;;;;3.65;1.80;;;;;;;9.18;68.24;100077.50;232501;1173;116731;-69
2021/05/23 22:20:45;;;;;;;2.70;2.10;;;;;;;9.11;69.02;100087.41;232533;1174;115269;-68
2021/05/23 22:25:48;;;;;;;4.95;2.43;;;;;;;9.02;69.19;100088.69;232911;1174;116087;-69
2021/05/23 22:30:53;;;;;;;4.45;2.50;;;;;;;9.01;69.20;100089.73;232520;1174;116395;-69
2021/05/23 22:35:58;;;;;;;2.60;2.38;;;;;;;8.99;69.01;100089.94;232742;1174;117168;-69
2021/05/23 22:41:05;;;;;;;3.73;2.90;;;;;;;8.96;69.15;100094.87;232352;1175;117460;-70
2021/05/23 22:46:12;;;;;;;;;;;;;;;8.87;68.82;100099.63;232904;1174;116878;-68
2021/05/23 22:51:16;;;;;;;5.20;3.33;;;;;;;8.83;69.95;100106.42;233990;1170;103744;-67
2021/05/23 22:56:20;;;;;;;4.53;3.03;;;;;;;8.67;68.96;100112.23;232473;1174;116411;-67
2021/05/23 23:01:31;;;;;;;7.17;4.90;;;;;;;8.52;69.30;100117.84;233438;1175;115737;-67
2021/05/23 23:06:35;;;;;;;6.43;3.83;;;;;;;8.48;69.33;100129.09;232905;1174;115802;-66
2021/05/23 23:11:39;;;;;;;4.55;3.65;;;;;;;8.44;69.84;100134.83;232625;1174;115716;-69
2021/05/23 23:16:42;;;;;;;5.23;3.03;;;;;;;8.20;69.26;100132.85;234196;1174;116705;-69
2021/05/23 23:21:44;;;;;;;2.93;2.70;;;;;;;8.01;69.63;100149.63;233486;1174;114855;-71
2021/05/23 23:26:48;;;;;;;3.93;3.53;;;;;;;7.96;69.69;100154.75;235061;1174;114856;-70
2021/05/23 23:31:51;;;;;;;3.98;3.60;;;;;;;7.97;69.37;100159.03;235029;1172;115574;-66